Colusa, Illinois
Current Conditions -  °F | °C
As of 6:15 AM on Saturday 20 Dec 2014 (Local Time) from KFSW Reporting Station
Overcast Overcast  
Wind Chill: 29°   Ceiling: 1200
Heat Index: 34°   Visibility: 7mi
Dew Point: 28°   Wind: 6mph
Humidity: 81%   Direction: 150°SSE
Pressure: 30.23"   Gusts: NA
Location:  40.57°N, 91.17°W
Report Text: KFSW 201215Z AUTO 15005KT 7SM OVC012 01/M02 A3023 RMK AO2
Loading
Personal Weather Stations






























Interactive Weather Map New forecast layout! Learn more

10-Day Weather Forecast

Advertisements
Track Severe Weather on mobile